FALA METAR and TAF | Updated Today

FALA METAR

Lanseria Airport

Observation time: 14 min. ago

FALA 292100Z AUTO 09003KT //// // ////// 20/07 Q1024

Need help? Read our tutorial on how to read METARs or read the parsed version below.

Lanseria Airport (FALA) METAR

  • Weather conditions on Thu, 29 Sep 2022 21:00:00 +0000 (14 min. ago):
  • Present conditions: Dry
  • Clouds: Clear skies
  • Visibility:
  • Wind: 90 degrees at 3 knots
  • Temperature: 20 celsius
  • Dew point: 7 celsius
  • Pressure: 1024 millibars
  • Remarks: None


Useful to know...

FALA TAF

Lanseria Airport

TAF FALA 291600Z 2918/3018 VRB03KT CAVOK TX29/3013Z TN13/3003Z
Observation time: 5:14 hr. ago
Need help? Read our tutorial on how to read TAFs or read the parsed version below.

Parsed version of TAF for Lanseria Airport (FALA)

  • From 29 September at 18:00 UTC, to day 30 of the month at 18:00 UTC
  • Visibility: Greater than 10 km
  • Wind: Variable at 3